Time;durP1;ratioP1;P1;durP2;ratioP2;P2;SDS_P1;SDS_P2;PMS_P1;PMS_P2;Temp;Humidity;BMP_temperature;BMP_pressure;BME280_temperature;BME280_humidity;BME280_pressure;Samples;Min_cycle;Max_cycle;Signal;HPM_P1;HPM_P2
2022/03/30 00:00:00;;;;;;;;;;;;;;;12.03;100.00;99279.97;5036616;28;20352;-73
2022/03/30 00:02:44;;;;;;;;;;;;;;;12.07;100.00;99285.81;5036463;28;20441;-71
2022/03/30 00:05:28;;;;;;;;;;;;;;;12.04;100.00;99288.81;5007965;28;20376;-71
2022/03/30 00:08:12;;;;;;;;;;;;;;;11.93;100.00;99298.06;5036412;28;19924;-72
2022/03/30 00:10:56;;;;;;;;;;;;;;;11.77;100.00;99294.66;5021696;28;19920;-72
2022/03/30 00:13:40;;;;;;;;;;;;;;;11.64;100.00;99294.38;5021216;28;20403;-71
2022/03/30 00:16:24;;;;;;;;;;;;;;;11.44;100.00;99293.94;5036204;28;20467;-72
2022/03/30 00:19:08;;;;;;;;;;;;;;;11.38;100.00;99297.28;5021586;28;19940;-71
2022/03/30 00:21:52;;;;;;;;;;;;;;;11.28;100.00;99302.00;5036184;28;19928;-72
2022/03/30 00:24:38;;;;;;;;;;;;;;;11.28;100.00;99302.00;5007642;28;20284;-72
2022/03/30 00:27:22;;;;;;;;;;;;;;;-139.48;100.00;61774.03;5021999;28;19920;-71
2022/03/30 00:30:06;;;;;;;;;;;;;;;-139.48;100.00;61774.03;5021113;28;19924;-72
2022/03/30 00:32:50;;;;;;;;;;;;;;;-139.48;100.00;61774.03;5035943;28;20407;-71
2022/03/30 00:35:34;;;;;;;;;;;;;;;-139.48;100.00;61774.03;5007485;28;20379;-72
2022/03/30 00:38:18;;;;;;;;;;;;;;;-139.48;100.00;61774.03;5021279;28;19920;-72
2022/03/30 00:41:02;;;;;;;;;;;;;;;-139.48;100.00;61774.03;5021157;28;19939;-72
2022/03/30 00:43:46;;;;;;;;;;;;;;;-139.48;100.00;61774.03;5035745;28;20384;-73
2022/03/30 00:46:29;;;;;;;;;;;;;;;-139.48;100.00;61774.03;5020733;28;20418;-72
2022/03/30 00:49:13;;;;;;;;;;;;;;;-139.48;100.00;61774.03;5020769;28;20021;-72
2022/03/30 00:51:59;;;;;;;;;;;;;;;-139.48;100.00;61774.03;5035875;28;19963;-72
2022/03/30 00:54:43;;;;;;;;;;;;;;;-139.48;100.00;61774.03;5035882;28;20272;-72
2022/03/30 00:57:28;;;;;;;;;;;;;;;-139.48;100.00;61774.03;5020796;28;19920;-72
2022/03/30 01:00:14;;;;;;;;;;;;;;;-139.48;100.00;61774.03;5020801;28;19928;-72
2022/03/30 01:02:58;;;;;;;;;;;;;;;-139.48;100.00;61774.03;5020713;28;19966;-71
2022/03/30 01:05:42;;;;;;;;;;;;;;;-139.48;100.00;61774.03;5006844;28;19935;-72
2022/03/30 01:08:26;;;;;;;;;;;;;;;-139.48;100.00;61774.03;5035708;28;19939;-72
2022/03/30 01:11:10;;;;;;;;;;;;;;;-139.48;100.00;61774.03;5020615;28;20049;-72
2022/03/30 01:13:53;;;;;;;;;;;;;;;-139.48;100.00;61774.03;5020548;28;19919;-72
2022/03/30 01:16:38;;;;;;;;;;;;;;;-139.48;100.00;61774.03;5020483;28;19936;-72
2022/03/30 01:19:25;;;;;;;;;;;;;;;-139.48;100.00;61774.03;5020457;28;19920;-72
2022/03/30 01:22:09;;;;;;;;;;;;;;;-139.48;100.00;61774.03;5020607;28;19920;-71
2022/03/30 01:24:53;;;;;;;;;;;;;;;-139.48;100.00;61774.03;5035000;28;19982;-72
2022/03/30 01:27:37;;;;;;;;;;;;;;;-139.48;100.00;61774.03;5019459;28;19928;-72
2022/03/30 01:33:25;;;;;;;;;;;;;;;-139.48;100.00;61774.03;5022815;28;20023;-72
2022/03/30 01:36:08;;;;;;;;;;;;;;;-139.48;100.00;61774.03;5020207;28;19919;-72
2022/03/30 01:38:52;;;;;;;;;;;;;;;-139.48;100.00;61774.03;5035065;28;19958;-72
2022/03/30 01:41:36;;;;;;;;;;;;;;;-139.48;100.00;61774.03;5019972;28;20483;-72
2022/03/30 01:44:20;;;;;;;;;;;;;;;-139.48;100.00;61774.03;5034635;28;20063;-72
2022/03/30 01:47:04;;;;;;;;;;;;;;;-139.48;100.00;61774.03;5019970;28;20334;-72
2022/03/30 01:49:48;;;;;;;;;;;;;;;-139.48;100.00;61774.03;5034475;28;20035;-72
2022/03/30 01:52:32;;;;;;;;;;;;;;;-139.48;100.00;61774.03;5034413;28;19959;-71
2022/03/30 01:55:16;;;;;;;;;;;;;;;-139.48;100.00;61774.03;5019765;28;19920;-72
2022/03/30 01:58:01;;;;;;;;;;;;;;;-139.48;100.00;61774.03;5019846;28;19920;-72
2022/03/30 02:00:45;;;;;;;;;;;;;;;-139.48;100.00;61774.03;5034632;28;20438;-72
2022/03/30 02:03:29;;;;;;;;;;;;;;;-139.48;100.00;61774.03;5034274;28;20405;-72
2022/03/30 02:06:15;;;;;;;;;;;;;;;-139.48;100.00;61774.03;5019700;28;19920;-71
2022/03/30 02:08:59;;;;;;;;;;;;;;;-139.48;100.00;61774.03;5019403;28;19924;-72
2022/03/30 02:11:43;;;;;;;;;;;;;;;-139.48;100.00;61774.03;5019124;28;19924;-72
2022/03/30 02:14:27;;;;;;;;;;;;;;;-139.48;100.00;61774.03;5019455;28;20000;-71
2022/03/30 02:17:11;;;;;;;;;;;;;;;-139.48;100.00;61774.03;5034401;28;19936;-71
2022/03/30 02:19:55;;;;;;;;;;;;;;;-139.48;100.00;61774.03;5019214;28;19970;-72
2022/03/30 02:22:39;;;;;;;;;;;;;;;-139.48;100.00;61774.03;5033967;28;19920;-71
2022/03/30 02:25:23;;;;;;;;;;;;;;;-139.48;100.00;61774.03;5034271;28;19920;-71
2022/03/30 02:28:07;;;;;;;;;;;;;;;-139.48;100.00;61774.03;5005360;28;20320;-71
2022/03/30 02:30:50;;;;;;;;;;;;;;;-139.48;100.00;61774.03;5019526;28;19919;-71
2022/03/30 02:33:34;;;;;;;;;;;;;;;-139.48;100.00;61774.03;5033775;28;19924;-71
2022/03/30 02:36:18;;;;;;;;;;;;;;;-139.48;100.00;61774.03;5018877;28;20421;-72
2022/03/30 02:39:03;;;;;;;;;;;;;;;-139.48;100.00;61774.03;5019018;28;20007;-72
2022/03/30 02:41:47;;;;;;;;;;;;;;;-139.48;100.00;61774.03;5033938;28;19920;-71
2022/03/30 02:44:31;;;;;;;;;;;;;;;-139.48;100.00;61774.03;5019154;28;19919;-71
2022/03/30 02:47:15;;;;;;;;;;;;;;;-139.48;100.00;61774.03;5033966;28;19968;-71
2022/03/30 02:49:59;;;;;;;;;;;;;;;-139.48;100.00;61774.03;5019331;28;20371;-71
2022/03/30 02:52:43;;;;;;;;;;;;;;;-139.48;100.00;61774.03;5033553;28;19920;-71
2022/03/30 02:55:27;;;;;;;;;;;;;;;-139.48;100.00;61774.03;5018947;28;20016;-71
2022/03/30 02:58:11;;;;;;;;;;;;;;;-139.48;100.00;61774.03;5018663;28;19920;-72
2022/03/30 03:00:55;;;;;;;;;;;;;;;-139.48;100.00;61774.03;5033821;28;19923;-71
2022/03/30 03:03:38;;;;;;;;;;;;;;;-139.48;100.00;61774.03;5018819;28;19936;-71
2022/03/30 03:06:22;;;;;;;;;;;;;;;-139.48;100.00;61774.03;5005017;28;19963;-72
2022/03/30 03:09:08;;;;;;;;;;;;;;;-139.48;100.00;61774.03;5018427;28;19924;-71
2022/03/30 03:11:52;;;;;;;;;;;;;;;-139.48;100.00;61774.03;5018872;28;19920;-72
2022/03/30 03:14:36;;;;;;;;;;;;;;;-139.48;100.00;61774.03;5019805;28;20011;-72
2022/03/30 03:17:20;;;;;;;;;;;;;;;-139.48;100.00;61774.03;5018456;28;20062;-71
2022/03/30 03:20:05;;;;;;;;;;;;;;;-139.48;100.00;61774.03;5033664;28;19920;-71
2022/03/30 03:22:49;;;;;;;;;;;;;;;-139.48;100.00;61774.03;5033676;28;19920;-72
2022/03/30 03:25:33;;;;;;;;;;;;;;;-139.48;100.00;61774.03;5033319;28;19920;-72
2022/03/30 03:28:17;;;;;;;;;;;;;;;-139.48;100.00;61774.03;5018594;28;19983;-72
2022/03/30 03:31:01;;;;;;;;;;;;;;;-139.48;100.00;61774.03;5033567;28;19920;-72
2022/03/30 03:33:45;;;;;;;;;;;;;;;-139.48;100.00;61774.03;5033473;28;19939;-71
2022/03/30 03:36:29;;;;;;;;;;;;;;;-139.48;100.00;61774.03;5033503;28;19920;-72
2022/03/30 03:39:13;;;;;;;;;;;;;;;-139.48;100.00;61774.03;5033216;28;19920;-71
2022/03/30 03:41:57;;;;;;;;;;;;;;;-139.48;100.00;61774.03;5004512;28;19919;-72
2022/03/30 03:44:41;;;;;;;;;;;;;;;-139.48;100.00;61774.03;5018784;28;19962;-71
2022/03/30 03:47:25;;;;;;;;;;;;;;;-139.48;100.00;61774.03;5018406;28;19924;-72
2022/03/30 03:50:10;;;;;;;;;;;;;;;-139.48;100.00;61774.03;5033407;28;19970;-71
2022/03/30 03:52:54;;;;;;;;;;;;;;;-139.48;100.00;61774.03;5036774;28;20063;-72
2022/03/30 03:55:38;;;;;;;;;;;;;;;-139.48;100.00;61774.03;5022086;28;19919;-71
2022/03/30 03:58:22;;;;;;;;;;;;;;;-139.48;100.00;61774.03;5037213;28;19962;-72
2022/03/30 04:01:06;;;;;;;;;;;;;;;-139.48;100.00;61774.03;5007812;28;19975;-72
2022/03/30 04:03:50;;;;;;;;;;;;;;;-139.48;100.00;61774.03;5036830;28;19919;-71
2022/03/30 04:06:34;;;;;;;;;;;;;;;-139.48;100.00;61774.03;5036813;28;19920;-72
2022/03/30 04:09:18;;;;;;;;;;;;;;;-139.48;100.00;61774.03;5021450;28;20006;-71
2022/03/30 04:12:02;;;;;;;;;;;;;;;-139.48;100.00;61774.03;5007396;28;19920;-72
2022/03/30 04:14:46;;;;;;;;;;;;;;;-139.48;100.00;61774.03;5022016;28;19967;-72
2022/03/30 04:17:32;;;;;;;;;;;;;;;-139.48;100.00;61774.03;5021568;28;19920;-72
2022/03/30 04:20:16;;;;;;;;;;;;;;;-139.48;100.00;61774.03;5021280;28;20011;-72
2022/03/30 04:23:00;;;;;;;;;;;;;;;-139.48;100.00;61774.03;5021290;28;19919;-72
2022/03/30 04:25:44;;;;;;;;;;;;;;;-139.48;100.00;61774.03;5036189;28;19967;-72
2022/03/30 04:28:28;;;;;;;;;;;;;;;-139.48;100.00;61774.03;5036050;28;20335;-72
2022/03/30 04:31:12;;;;;;;;;;;;;;;-139.48;100.00;61774.03;5021676;28;20004;-72
2022/03/30 04:33:56;;;;;;;;;;;;;;;-139.48;100.00;61774.03;5007722;28;19920;-72
2022/03/30 04:36:39;;;;;;;;;;;;;;;-139.48;100.00;61774.03;5020958;28;20495;-72
2022/03/30 04:39:23;;;;;;;;;;;;;;;-139.48;100.00;61774.03;5021588;28;19971;-72
2022/03/30 04:42:07;;;;;;;;;;;;;;;-139.48;100.00;61774.03;5020841;28;20430;-72
2022/03/30 04:44:51;;;;;;;;;;;;;;;-139.48;100.00;61774.03;5021019;28;19963;-72
2022/03/30 04:47:35;;;;;;;;;;;;;;;-139.48;100.00;61774.03;5035740;28;20407;-72
2022/03/30 04:50:19;;;;;;;;;;;;;;;-139.48;100.00;61774.03;5007463;28;19940;-72
2022/03/30 04:53:03;;;;;;;;;;;;;;;-139.48;100.00;61774.03;5035799;28;19920;-72
2022/03/30 04:55:47;;;;;;;;;;;;;;;-139.48;100.00;61774.03;5035611;28;20284;-73
2022/03/30 04:58:31;;;;;;;;;;;;;;;-139.48;100.00;61774.03;5020874;28;20311;-72
2022/03/30 05:01:15;;;;;;;;;;;;;;;-139.48;100.00;61774.03;5020663;28;20020;-72
2022/03/30 05:03:59;;;;;;;;;;;;;;;-139.48;100.00;61774.03;5034302;28;19985;-72
2022/03/30 05:06:43;;;;;;;;;;;;;;;-139.48;100.00;61774.03;5035385;28;19920;-72
2022/03/30 05:09:26;;;;;;;;;;;;;;;-139.48;100.00;61774.03;5035418;28;19940;-72
2022/03/30 05:12:10;;;;;;;;;;;;;;;-139.48;100.00;61774.03;5035370;28;19920;-72
2022/03/30 05:14:54;;;;;;;;;;;;;;;-139.48;100.00;61774.03;5006409;28;20392;-72
2022/03/30 05:17:38;;;;;;;;;;;;;;;-139.48;100.00;61774.03;5035620;28;20026;-72
2022/03/30 05:20:22;;;;;;;;;;;;;;;-139.48;100.00;61774.03;5035338;28;19959;-72
2022/03/30 05:23:06;;;;;;;;;;;;;;;-139.48;100.00;61774.03;5020336;28;19967;-72
2022/03/30 05:25:50;;;;;;;;;;;;;;;-139.48;100.00;61774.03;5020224;28;19970;-72
2022/03/30 05:28:38;;;;;;;;;;;;;;;-139.48;100.00;61774.03;5019912;28;19963;-72
2022/03/30 05:31:22;;;;;;;;;;;;;;;-139.48;100.00;61774.03;5020528;28;19955;-72
2022/03/30 05:34:06;;;;;;;;;;;;;;;-139.48;100.00;61774.03;5034832;28;19920;-72
2022/03/30 05:36:50;;;;;;;;;;;;;;;-139.48;100.00;61774.03;5020138;28;19924;-72
2022/03/30 05:39:35;;;;;;;;;;;;;;;-139.48;100.00;61774.03;5020045;28;19966;-72
2022/03/30 05:42:21;;;;;;;;;;;;;;;-139.48;100.00;61774.03;5034574;28;19958;-72
2022/03/30 05:45:05;;;;;;;;;;;;;;;-139.48;100.00;61774.03;5034906;28;19924;-72
2022/03/30 05:47:49;;;;;;;;;;;;;;;-139.48;100.00;61774.03;5034788;28;20395;-72
2022/03/30 05:50:33;;;;;;;;;;;;;;;-139.48;100.00;61774.03;5019599;28;20446;-72
2022/03/30 05:53:17;;;;;;;;;;;;;;;-139.48;100.00;61774.03;5034403;28;20395;-72
2022/03/30 05:56:02;;;;;;;;;;;;;;;-139.48;100.00;61774.03;5035044;28;20002;-72
2022/03/30 05:58:46;;;;;;;;;;;;;;;-139.48;100.00;61774.03;5019692;28;19959;-72
2022/03/30 06:01:29;;;;;;;;;;;;;;;-139.48;100.00;61774.03;5034538;28;20434;-72
2022/03/30 06:04:13;;;;;;;;;;;;;;;-139.48;100.00;61774.03;5034600;28;19959;-72
2022/03/30 06:06:58;;;;;;;;;;;;;;;-139.48;100.00;61774.03;5019599;28;20402;-72
2022/03/30 06:09:41;;;;;;;;;;;;;;;-139.48;100.00;61774.03;5005695;28;19975;-72
2022/03/30 06:12:25;;;;;;;;;;;;;;;-139.48;100.00;61774.03;5019162;28;19924;-72
2022/03/30 06:15:09;;;;;;;;;;;;;;;-139.48;100.00;61774.03;5019114;28;19924;-72
2022/03/30 06:17:53;;;;;;;;;;;;;;;-139.48;100.00;61774.03;5034678;28;19978;-72
2022/03/30 06:20:38;;;;;;;;;;;;;;;-139.48;100.00;61774.03;5005538;28;19919;-72
2022/03/30 06:23:21;;;;;;;;;;;;;;;-139.48;100.00;61774.03;5019370;28;20277;-72
2022/03/30 06:26:05;;;;;;;;;;;;;;;-139.48;100.00;61774.03;5019114;28;20038;-72
2022/03/30 06:28:49;;;;;;;;;;;;;;;-139.48;100.00;61774.03;5034145;28;19924;-72
2022/03/30 06:31:33;;;;;;;;;;;;;;;-139.48;100.00;61774.03;5019166;28;19959;-72
2022/03/30 06:34:17;;;;;;;;;;;;;;;-139.48;100.00;61774.03;5019075;28;19920;-72
2022/03/30 06:37:01;;;;;;;;;;;;;;;-139.48;100.00;61774.03;5033833;28;19920;-72
2022/03/30 06:39:44;;;;;;;;;;;;;;;-139.48;100.00;61774.03;5019445;28;19920;-72
2022/03/30 06:42:28;;;;;;;;;;;;;;;-139.48;100.00;61774.03;5018844;28;20000;-72
2022/03/30 06:45:12;;;;;;;;;;;;;;;-139.48;100.00;61774.03;5034016;28;20387;-72
2022/03/30 06:47:56;;;;;;;;;;;;;;;-139.48;100.00;61774.03;5005093;28;19959;-72
2022/03/30 06:50:40;;;;;;;;;;;;;;;-139.48;100.00;61774.03;5019008;28;19944;-72
2022/03/30 06:53:24;;;;;;;;;;;;;;;-139.48;100.00;61774.03;5033841;28;20011;-72
2022/03/30 06:56:08;;;;;;;;;;;;;;;-139.48;100.00;61774.03;5004801;28;19919;-72
2022/03/30 06:58:53;;;;;;;;;;;;;;;-139.48;100.00;61774.03;5005103;28;19919;-72
2022/03/30 07:01:36;;;;;;;;;;;;;;;-139.48;100.00;61774.03;5004690;28;20435;-72
2022/03/30 07:04:21;;;;;;;;;;;;;;;-139.48;100.00;61774.03;5033511;28;20054;-72
2022/03/30 07:10:17;;;;;;;;;;;;;;;-139.48;100.00;61774.03;5021266;28;20016;-72
2022/03/30 07:13:03;;;;;;;;;;;;;;;-139.48;100.00;61774.03;5018595;28;19920;-74
2022/03/30 07:15:47;;;;;;;;;;;;;;;-139.48;100.00;61774.03;5033445;28;20317;-71
2022/03/30 07:18:31;;;;;;;;;;;;;;;-139.48;100.00;61774.03;5018536;28;20388;-74
2022/03/30 07:21:15;;;;;;;;;;;;;;;-139.48;100.00;61774.03;5004865;28;20288;-73
2022/03/30 07:23:59;;;;;;;;;;;;;;;-139.48;100.00;61774.03;5033930;28;19921;-73
2022/03/30 07:26:43;;;;;;;;;;;;;;;-139.48;100.00;61774.03;5020651;28;20322;-71
2022/03/30 07:29:26;;;;;;;;;;;;;;;-139.48;100.00;61774.03;5022193;28;19924;-73
2022/03/30 07:32:10;;;;;;;;;;;;;;;-139.48;100.00;61774.03;5022100;28;20430;-74
2022/03/30 07:34:54;;;;;;;;;;;;;;;-139.48;100.00;61774.03;5037408;28;19920;-74
2022/03/30 07:37:38;;;;;;;;;;;;;;;-139.48;100.00;61774.03;5022133;28;20055;-74
2022/03/30 07:40:24;;;;;;;;;;;;;;;-139.48;100.00;61774.03;5022412;28;20547;-71
2022/03/30 07:43:09;;;;;;;;;;;;;;;-139.48;100.00;61774.03;5022308;28;19920;-71
2022/03/30 07:45:53;;;;;;;;;;;;;;;-139.48;100.00;61774.03;5008697;28;20285;-71
2022/03/30 07:48:37;;;;;;;;;;;;;;;-139.48;100.00;61774.03;5008591;28;19943;-71
2022/03/30 07:51:21;;;;;;;;;;;;;;;-139.48;100.00;61774.03;5021804;28;19920;-73
2022/03/30 07:54:05;;;;;;;;;;;;;;;-139.48;100.00;61774.03;5007933;28;19924;-71
2022/03/30 07:56:50;;;;;;;;;;;;;;;-139.48;100.00;61774.03;5036704;28;19926;-74
2022/03/30 07:59:34;;;;;;;;;;;;;;;-139.48;100.00;61774.03;5036694;28;19979;-71
2022/03/30 08:02:18;;;;;;;;;;;;;;;-139.48;100.00;61774.03;5036769;28;20007;-74
2022/03/30 08:05:03;;;;;;;;;;;;;;;-139.48;100.00;61774.03;5022072;28;19920;-73
2022/03/30 08:07:49;;;;;;;;;;;;;;;-139.48;100.00;61774.03;5022010;28;19920;-73
2022/03/30 08:10:35;;;;;;;;;;;;;;;-139.48;100.00;61774.03;5008548;28;19920;-73
2022/03/30 08:13:19;;;;;;;;;;;;;;;-139.48;100.00;61774.03;5021564;28;19920;-73
2022/03/30 08:16:03;;;;;;;;;;;;;;;-139.48;100.00;61774.03;5021961;28;20336;-74
2022/03/30 08:18:47;;;;;;;;;;;;;;;-139.48;100.00;61774.03;5036605;28;19919;-73
2022/03/30 08:24:34;;;;;;;;;;;;;;;-139.48;100.00;61774.03;5024007;28;19943;-73
2022/03/30 08:27:18;;;;;;;;;;;;;;;-139.48;100.00;61774.03;5021331;28;20399;-73
2022/03/30 08:30:04;;;;;;;;;;;;;;;-139.48;100.00;61774.03;5021079;28;20276;-73
2022/03/30 08:32:47;;;;;;;;;;;;;;;-139.48;100.00;61774.03;5021186;28;19935;-73
2022/03/30 08:35:32;;;;;;;;;;;;;;;-139.48;100.00;61774.03;5021222;28;19963;-71
2022/03/30 08:38:15;;;;;;;;;;;;;;;-139.48;100.00;61774.03;5006898;28;19923;-73
2022/03/30 08:40:59;;;;;;;;;;;;;;;-139.48;100.00;61774.03;5036213;28;19968;-73
2022/03/30 08:43:43;;;;;;;;;;;;;;;-139.48;100.00;61774.03;5020792;28;19978;-73
2022/03/30 08:46:27;;;;;;;;;;;;;;;-139.48;100.00;61774.03;5007548;28;19920;-73
2022/03/30 08:49:11;;;;;;;;;;;;;;;-139.48;100.00;61774.03;5020665;28;19962;-73
2022/03/30 08:51:57;;;;;;;;;;;;;;;-139.48;100.00;61774.03;5035626;28;20438;-71
2022/03/30 08:54:45;;;;;;;;;;;;;;;-139.48;100.00;61774.03;5007342;28;20491;-73
2022/03/30 08:57:29;;;;;;;;;;;;;;;-139.48;100.00;61774.03;5020618;28;19962;-73
2022/03/30 09:00:14;;;;;;;;;;;;;;;-139.48;100.00;61774.03;5035587;28;20364;-73
2022/03/30 09:03:01;;;;;;;;;;;;;;;-139.48;100.00;61774.03;5035553;28;19919;-73
2022/03/30 09:05:45;;;;;;;;;;;;;;;-139.48;100.00;61774.03;5021251;28;20023;-73
2022/03/30 09:08:29;;;;;;;;;;;;;;;-139.48;100.00;61774.03;5020566;28;19924;-73
2022/03/30 09:11:13;;;;;;;;;;;;;;;-139.48;100.00;61774.03;5035418;28;19920;-74
2022/03/30 09:14:01;;;;;;;;;;;;;;;-139.48;100.00;61774.03;5021577;28;19987;-74
2022/03/30 09:16:48;;;;;;;;;;;;;;;-139.48;100.00;61774.03;5020488;28;19935;-73
2022/03/30 09:19:38;;;;;;;;;;;;;;;-139.48;100.00;61774.03;5020216;28;19945;-73
2022/03/30 09:22:23;;;;;;;;;;;;;;;-139.48;100.00;61774.03;5021424;28;19920;-73
2022/03/30 09:25:08;;;;;;;;;;;;;;;-139.48;100.00;61774.03;5020169;28;20288;-73
2022/03/30 09:27:52;;;;;;;;;;;;;;;-139.48;100.00;61774.03;5034969;28;19920;-73
2022/03/30 09:30:36;;;;;;;;;;;;;;;-139.48;100.00;61774.03;5020565;28;19952;-73
2022/03/30 09:33:21;;;;;;;;;;;;;;;-139.48;100.00;61774.03;5019980;28;19935;-73
2022/03/30 09:36:05;;;;;;;;;;;;;;;-139.48;100.00;61774.03;5020000;28;19920;-73
2022/03/30 09:38:49;;;;;;;;;;;;;;;-139.48;100.00;61774.03;5020132;28;19967;-73
2022/03/30 09:41:45;;;;;;;;;;;;;;;-139.48;100.00;61774.03;5034692;28;19920;-73
2022/03/30 09:44:30;;;;;;;;;;;;;;;-139.48;100.00;61774.03;5020062;28;19916;-73
2022/03/30 09:47:14;;;;;;;;;;;;;;;-139.48;100.00;61774.03;5019687;28;19920;-73
2022/03/30 09:49:59;;;;;;;;;;;;;;;-139.48;100.00;61774.03;5005434;28;19968;-73
2022/03/30 09:52:43;;;;;;;;;;;;;;;-139.48;100.00;61774.03;5034656;28;19967;-73
2022/03/30 09:55:28;;;;;;;;;;;;;;;-139.48;100.00;61774.03;5034550;28;20010;-72
2022/03/30 09:58:12;;;;;;;;;;;;;;;-139.48;100.00;61774.03;5034743;28;19920;-73
2022/03/30 10:01:03;;;;;;;;;;;;;;;-139.48;100.00;61774.03;5020257;28;19927;-73
2022/03/30 10:03:48;;;;;;;;;;;;;;;-139.48;100.00;61774.03;5019695;28;19963;-73
2022/03/30 10:06:33;;;;;;;;;;;;;;;-139.48;100.00;61774.03;5034617;28;19967;-73
2022/03/30 10:09:17;;;;;;;;;;;;;;;-139.48;100.00;61774.03;5019583;28;19924;-73
2022/03/30 10:12:01;;;;;;;;;;;;;;;-139.48;100.00;61774.03;5019041;28;19919;-73
2022/03/30 10:14:46;;;;;;;;;;;;;;;-139.48;100.00;61774.03;5019183;28;19924;-72
2022/03/30 10:17:29;;;;;;;;;;;;;;;-139.48;100.00;61774.03;5019429;28;20277;-72
2022/03/30 10:20:13;;;;;;;;;;;;;;;-139.48;100.00;61774.03;5035027;28;19920;-73
2022/03/30 10:23:00;;;;;;;;;;;;;;;-139.48;100.00;61774.03;5034240;28;19919;-72
2022/03/30 10:25:51;;;;;;;;;;;;;;;-139.48;100.00;61774.03;5033974;28;19920;-72
2022/03/30 10:28:43;;;;;;;;;;;;;;;-139.48;100.00;61774.03;5019004;28;19944;-72
2022/03/30 10:31:30;;;;;;;;;;;;;;;-139.48;100.00;61774.03;5033999;28;20006;-72
2022/03/30 10:34:24;;;;;;;;;;;;;;;-139.48;100.00;61774.03;5019584;28;19962;-73
2022/03/30 10:37:11;;;;;;;;;;;;;;;-139.48;100.00;61774.03;5019282;28;20020;-72
2022/03/30 10:39:57;;;;;;;;;;;;;;;-139.48;100.00;61774.03;5034083;28;19966;-72
2022/03/30 10:42:47;;;;;;;;;;;;;;;-139.48;100.00;61774.03;5018827;28;19920;-73
2022/03/30 10:45:31;;;;;;;;;;;;;;;-139.48;100.00;61774.03;5033771;28;20387;-72
2022/03/30 10:48:34;;;;;;;;;;;;;;;-139.48;100.00;61774.03;5033958;28;20403;-72
2022/03/30 10:51:19;;;;;;;;;;;;;;;-139.48;100.00;61774.03;5033954;28;19959;-72
2022/03/30 10:54:03;;;;;;;;;;;;;;;-139.48;100.00;61774.03;5019009;28;20415;-73
2022/03/30 10:56:49;;;;;;;;;;;;;;;-139.48;100.00;61774.03;5034187;28;20022;-72
2022/03/30 10:59:33;;;;;;;;;;;;;;;-139.48;100.00;61774.03;5034019;28;19962;-72
2022/03/30 11:02:17;;;;;;;;;;;;;;;-139.48;100.00;61774.03;5022823;28;19983;-72
2022/03/30 11:05:09;;;;;;;;;;;;;;;-139.48;100.00;61774.03;5023008;28;20058;-72
2022/03/30 11:07:53;;;;;;;;;;;;;;;-139.48;100.00;61774.03;5022976;28;19983;-72
2022/03/30 11:10:45;;;;;;;;;;;;;;;-139.48;100.00;61774.03;5037665;28;19979;-73
2022/03/30 11:13:28;;;;;;;;;;;;;;;-139.48;100.00;61774.03;5022329;28;19920;-72
2022/03/30 11:16:13;;;;;;;;;;;;;;;-139.48;100.00;61774.03;5022813;28;20388;-72
2022/03/30 11:18:58;;;;;;;;;;;;;;;-139.48;100.00;61774.03;5037464;28;19920;-72
2022/03/30 11:21:55;;;;;;;;;;;;;;;-139.48;100.00;61774.03;5009093;28;20475;-73
2022/03/30 11:24:41;;;;;;;;;;;;;;;-139.48;100.00;61774.03;5009007;28;19916;-72
2022/03/30 11:27:25;;;;;;;;;;;;;;;-139.48;100.00;61774.03;5022509;28;19971;-72
2022/03/30 11:30:16;;;;;;;;;;;;;;;-139.48;100.00;61774.03;5008369;28;19991;-73
2022/03/30 11:33:01;;;;;;;;;;;;;;;-139.48;100.00;61774.03;5022676;28;19919;-73
2022/03/30 11:35:46;;;;;;;;;;;;;;;-139.48;100.00;61774.03;5022891;28;19972;-72
2022/03/30 11:38:37;;;;;;;;;;;;;;;-139.48;100.00;61774.03;5037356;28;20010;-72
2022/03/30 11:41:21;;;;;;;;;;;;;;;-139.48;100.00;61774.03;5022860;28;20007;-72
2022/03/30 11:47:16;;;;;;;;;;;;;;;-139.48;100.00;61774.03;5024908;28;20280;-72
2022/03/30 11:49:59;;;;;;;;;;;;;;;-139.48;100.00;61774.03;5036847;28;19983;-72
2022/03/30 11:52:52;;;;;;;;;;;;;;;-139.48;100.00;61774.03;5036702;28;19935;-73
2022/03/30 11:55:56;;;;;;;;;;;;;;;-139.48;100.00;61774.03;5022092;28;20034;-73
2022/03/30 11:58:41;;;;;;;;;;;;;;;-139.48;100.00;61774.03;5022023;28;20285;-72
2022/03/30 12:01:25;;;;;;;;;;;;;;;-139.48;100.00;61774.03;5021931;28;20047;-73
2022/03/30 12:04:09;;;;;;;;;;;;;;;-139.48;100.00;61774.03;5021936;28;19970;-72
2022/03/30 12:06:52;;;;;;;;;;;;;;;-139.48;100.00;61774.03;5036608;28;19920;-73
2022/03/30 12:09:43;;;;;;;;;;;;;;;-139.48;100.00;61774.03;5021498;28;20383;-73
2022/03/30 12:12:35;;;;;;;;;;;;;;;-139.48;100.00;61774.03;5036082;28;19959;-73
2022/03/30 12:15:19;;;;;;;;;;;;;;;-139.48;100.00;61774.03;5022227;28;19923;-71
2022/03/30 12:18:03;;;;;;;;;;;;;;;-139.48;100.00;61774.03;5021732;28;20035;-73
2022/03/30 12:20:47;;;;;;;;;;;;;;;-139.48;100.00;61774.03;5036337;28;19920;-73
2022/03/30 12:23:31;;;;;;;;;;;;;;;-139.48;100.00;61774.03;5007664;28;19920;-73
2022/03/30 12:26:15;;;;;;;;;;;;;;;-139.48;100.00;61774.03;5021165;28;19967;-73
2022/03/30 12:29:06;;;;;;;;;;;;;;;-139.48;100.00;61774.03;5036232;28;19924;-73
2022/03/30 12:31:52;;;;;;;;;;;;;;;-139.48;100.00;61774.03;5036059;28;19923;-73
2022/03/30 12:34:36;;;;;;;;;;;;;;;-139.48;100.00;61774.03;5036392;28;20033;-71
2022/03/30 12:37:21;;;;;;;;;;;;;;;-139.48;100.00;61774.03;5021136;28;19936;-73
2022/03/30 12:40:09;;;;;;;;;;;;;;;-139.48;100.00;61774.03;5021349;28;19920;-73
2022/03/30 12:42:53;;;;;;;;;;;;;;;-139.48;100.00;61774.03;5036160;28;19920;-72
2022/03/30 12:45:53;;;;;;;;;;;;;;;-139.48;100.00;61774.03;5007241;28;19920;-73
2022/03/30 12:48:39;;;;;;;;;;;;;;;-139.48;100.00;61774.03;5021976;28;19923;-73
2022/03/30 12:51:25;;;;;;;;;;;;;;;-139.48;100.00;61774.03;5021003;28;20406;-72
2022/03/30 12:54:21;;;;;;;;;;;;;;;-139.48;100.00;61774.03;5035995;28;20379;-70
2022/03/30 12:57:05;;;;;;;;;;;;;;;-139.48;100.00;61774.03;5021071;28;19924;-70
2022/03/30 12:59:50;;;;;;;;;;;;;;;-139.48;100.00;61774.03;5020591;28;19919;-72
2022/03/30 13:02:33;;;;;;;;;;;;;;;-139.48;100.00;61774.03;5020562;28;19967;-72
2022/03/30 13:05:21;;;;;;;;;;;;;;;-139.48;100.00;61774.03;5020175;28;19920;-72
2022/03/30 13:08:14;;;;;;;;;;;;;;;-139.48;100.00;61774.03;5020463;28;19967;-73
2022/03/30 13:11:02;;;;;;;;;;;;;;;-139.48;100.00;61774.03;5020519;28;20280;-72
2022/03/30 13:13:48;;;;;;;;;;;;;;;-139.48;100.00;61774.03;5035106;28;19920;-71
2022/03/30 13:16:32;;;;;;;;;;;;;;;-139.48;100.00;61774.03;5020217;28;19971;-71
2022/03/30 13:19:17;;;;;;;;;;;;;;;-139.48;100.00;61774.03;5020625;28;19924;-72
2022/03/30 13:22:00;;;;;;;;;;;;;;;-139.48;100.00;61774.03;5006264;28;20391;-72
2022/03/30 13:24:48;;;;;;;;;;;;;;;-139.48;100.00;61774.03;5034310;28;19919;-70
2022/03/30 13:27:41;;;;;;;;;;;;;;;-139.48;100.00;61774.03;5034994;28;20005;-73
2022/03/30 13:30:24;;;;;;;;;;;;;;;-139.48;100.00;61774.03;5020193;28;19994;-72
2022/03/30 13:33:08;;;;;;;;;;;;;;;-139.48;100.00;61774.03;5034964;28;19920;-70
2022/03/30 13:35:53;;;;;;;;;;;;;;;-139.48;100.00;61774.03;5020018;28;19920;-72
2022/03/30 13:38:37;;;;;;;;;;;;;;;-139.48;100.00;61774.03;5019877;28;20012;-73
2022/03/30 13:41:21;;;;;;;;;;;;;;;-139.48;100.00;61774.03;5020375;28;19963;-70
2022/03/30 13:44:05;;;;;;;;;;;;;;;-139.48;100.00;61774.03;5019729;28;19920;-72
2022/03/30 13:46:49;;;;;;;;;;;;;;;-139.48;100.00;61774.03;5034626;28;19919;-71
2022/03/30 13:49:44;;;;;;;;;;;;;;;-139.48;100.00;61774.03;5019853;28;19962;-71
2022/03/30 13:52:28;;;;;;;;;;;;;;;-139.48;100.00;61774.03;5021572;28;20288;-73
2022/03/30 13:55:12;;;;;;;;;;;;;;;-139.48;100.00;61774.03;5019644;28;19939;-72
2022/03/30 13:57:57;;;;;;;;;;;;;;;-139.48;100.00;61774.03;5019765;28;20348;-73